createdAt,value
2023-04-15T00:01:12.173Z,19.91
2023-04-15T00:03:40.746Z,19.90
2023-04-15T00:06:09.960Z,19.89
2023-04-15T00:08:38.048Z,19.88
2023-04-15T00:11:06.425Z,19.87
2023-04-15T00:13:35.104Z,19.86
2023-04-15T00:16:03.079Z,19.85
2023-04-15T00:18:31.881Z,19.85
2023-04-15T00:21:00.254Z,19.84
2023-04-15T00:23:28.513Z,19.84
2023-04-15T00:25:56.786Z,19.84
2023-04-15T00:28:24.838Z,19.82
2023-04-15T00:30:52.858Z,19.82
2023-04-15T00:33:21.005Z,19.81
2023-04-15T00:35:49.175Z,19.80
2023-04-15T00:38:17.960Z,19.80
2023-04-15T00:40:46.057Z,19.79
2023-04-15T00:43:14.008Z,19.78
2023-04-15T00:45:42.102Z,19.77
2023-04-15T00:48:11.690Z,19.76
2023-04-15T00:50:39.865Z,19.77
2023-04-15T00:53:07.938Z,19.76
2023-04-15T00:55:36.526Z,19.75
2023-04-15T00:58:04.802Z,19.74
2023-04-15T01:00:32.766Z,19.73
2023-04-15T01:03:01.930Z,19.72
2023-04-15T01:05:30.765Z,19.71
2023-04-15T01:07:58.709Z,19.70
2023-04-15T01:10:27.620Z,19.69
2023-04-15T01:12:55.888Z,19.68
2023-04-15T01:15:24.174Z,19.67
2023-04-15T01:17:52.286Z,19.67
2023-04-15T01:20:20.820Z,19.66
2023-04-15T01:22:49.190Z,19.66
2023-04-15T01:25:26.219Z,19.64
2023-04-15T01:27:54.352Z,19.63
2023-04-15T01:30:22.641Z,19.63
2023-04-15T01:32:51.963Z,19.62
2023-04-15T01:35:21.673Z,19.62
2023-04-15T01:37:49.808Z,19.61
2023-04-15T01:40:18.702Z,19.61
2023-04-15T01:42:46.994Z,19.60
2023-04-15T01:45:17.720Z,19.59
2023-04-15T01:47:45.938Z,19.58
2023-04-15T01:50:14.035Z,19.57
2023-04-15T01:52:42.563Z,19.57
2023-04-15T01:55:11.309Z,19.56
2023-04-15T01:57:40.094Z,19.55
2023-04-15T02:00:08.383Z,19.55
2023-04-15T02:02:43.947Z,19.54
2023-04-15T02:05:12.130Z,19.53
2023-04-15T02:07:40.058Z,19.53
2023-04-15T02:10:11.837Z,19.52
2023-04-15T02:12:40.842Z,19.52
2023-04-15T02:15:10.460Z,19.51
2023-04-15T02:17:38.750Z,19.51
2023-04-15T02:20:07.203Z,19.51
2023-04-15T02:22:35.393Z,19.49
2023-04-15T02:25:03.667Z,19.48
2023-04-15T02:27:33.577Z,19.47
2023-04-15T02:30:01.925Z,19.46
2023-04-15T02:32:30.264Z,19.46
2023-04-15T02:35:02.916Z,19.46
2023-04-15T02:37:32.011Z,19.45
2023-04-15T02:40:01.691Z,19.44
2023-04-15T02:42:30.604Z,19.43
2023-04-15T02:45:00.529Z,19.43
2023-04-15T02:47:31.683Z,19.42
2023-04-15T02:50:01.175Z,19.42
2023-04-15T02:52:30.269Z,19.41
2023-04-15T02:55:00.907Z,19.41
2023-04-15T02:57:31.847Z,19.39
2023-04-15T03:00:05.071Z,19.39
2023-04-15T03:02:35.801Z,19.38
2023-04-15T03:05:06.105Z,19.38
2023-04-15T03:07:34.267Z,19.37
2023-04-15T03:10:03.039Z,19.33
2023-04-15T03:12:31.114Z,19.33
2023-04-15T03:15:00.525Z,19.34
2023-04-15T03:17:34.033Z,19.32
2023-04-15T03:20:05.077Z,19.31
2023-04-15T03:22:33.559Z,19.29
2023-04-15T03:25:01.920Z,19.28
2023-04-15T03:27:30.096Z,19.27
2023-04-15T03:30:00.740Z,19.27
2023-04-15T03:32:32.635Z,19.26
2023-04-15T03:35:00.989Z,19.26
2023-04-15T03:37:29.060Z,19.25
2023-04-15T03:39:57.330Z,19.21
2023-04-15T03:42:25.804Z,19.23
2023-04-15T03:44:53.850Z,19.22
2023-04-15T03:47:21.977Z,19.22
2023-04-15T03:49:50.121Z,19.21
2023-04-15T03:52:18.312Z,19.21
2023-04-15T03:54:46.500Z,19.21
2023-04-15T03:57:14.430Z,19.19
2023-04-15T03:59:42.527Z,19.19
2023-04-15T04:02:10.742Z,19.18
2023-04-15T04:04:38.833Z,19.18
2023-04-15T04:07:07.129Z,19.17
2023-04-15T04:09:35.213Z,19.15
2023-04-15T04:12:04.396Z,19.15
2023-04-15T04:14:32.367Z,19.15
2023-04-15T04:17:00.550Z,19.14
2023-04-15T04:19:30.199Z,19.14
2023-04-15T04:21:58.530Z,19.13
2023-04-15T04:24:26.596Z,19.13
2023-04-15T04:26:54.780Z,19.13
2023-04-15T04:29:22.852Z,19.12
2023-04-15T04:31:51.103Z,19.12
2023-04-15T04:34:19.506Z,19.12
2023-04-15T04:36:47.592Z,19.11
2023-04-15T04:39:15.762Z,19.10
2023-04-15T04:41:44.945Z,19.10
2023-04-15T04:44:13.026Z,19.10
2023-04-15T04:46:41.396Z,19.10
2023-04-15T04:49:09.341Z,19.09
2023-04-15T04:51:37.450Z,19.09
2023-04-15T04:54:05.511Z,19.09
2023-04-15T04:56:34.822Z,19.09
2023-04-15T04:59:03.185Z,19.09
2023-04-15T05:01:31.480Z,19.09
2023-04-15T05:04:00.431Z,19.08
2023-04-15T05:06:30.781Z,19.07
2023-04-15T05:08:59.056Z,19.07
2023-04-15T05:11:27.081Z,19.07
2023-04-15T05:13:55.199Z,19.07
2023-04-15T05:16:23.419Z,19.06
2023-04-15T05:18:52.072Z,19.06
2023-04-15T05:21:20.831Z,19.06
2023-04-15T05:23:48.822Z,19.07
2023-04-15T05:26:17.930Z,19.07
2023-04-15T05:28:46.400Z,19.08
2023-04-15T05:31:14.402Z,19.09
2023-04-15T05:33:42.646Z,19.10
2023-04-15T05:36:10.632Z,19.11
2023-04-15T05:38:38.901Z,19.13
2023-04-15T05:41:06.962Z,19.14
2023-04-15T05:43:35.048Z,19.15
2023-04-15T05:46:03.018Z,19.16
2023-04-15T05:48:31.273Z,19.18
2023-04-15T05:50:59.482Z,19.19
2023-04-15T05:53:27.531Z,19.21
2023-04-15T05:55:56.026Z,19.23
2023-04-15T05:58:24.296Z,19.24
2023-04-15T06:00:52.257Z,19.26
2023-04-15T06:03:20.541Z,19.27
2023-04-15T06:05:49.294Z,19.27
2023-04-15T06:08:17.398Z,19.28
2023-04-15T06:10:46.283Z,19.29
2023-04-15T06:13:14.202Z,19.29
2023-04-15T06:15:42.397Z,19.24
2023-04-15T06:18:11.938Z,19.25
2023-04-15T06:20:40.326Z,19.30
2023-04-15T06:23:08.383Z,19.29
2023-04-15T06:25:36.572Z,19.30
2023-04-15T06:28:04.846Z,19.31
2023-04-15T06:30:33.005Z,19.34
2023-04-15T06:33:01.007Z,19.36
2023-04-15T06:35:29.052Z,19.39
2023-04-15T06:37:57.627Z,19.42
2023-04-15T06:40:25.707Z,19.44
2023-04-15T06:42:53.679Z,19.46
2023-04-15T06:45:21.658Z,19.47
2023-04-15T06:47:49.758Z,19.48
2023-04-15T06:50:18.482Z,19.50
2023-04-15T06:52:46.659Z,19.53
2023-04-15T06:55:15.161Z,19.56
2023-04-15T06:57:43.440Z,19.59
2023-04-15T07:00:12.325Z,19.62
2023-04-15T07:02:40.702Z,19.64
2023-04-15T07:05:09.195Z,19.65
2023-04-15T07:07:37.566Z,19.66
2023-04-15T07:10:06.390Z,19.65
2023-04-15T07:12:35.443Z,19.65
2023-04-15T07:15:04.345Z,19.66
2023-04-15T07:17:32.656Z,19.66
2023-04-15T07:20:00.791Z,19.69
2023-04-15T07:22:28.880Z,19.73
2023-04-15T07:24:56.895Z,19.77
2023-04-15T07:27:24.800Z,19.81
2023-04-15T07:29:53.369Z,19.86
2023-04-15T07:32:21.491Z,19.91
2023-04-15T07:34:49.484Z,19.98
2023-04-15T07:37:17.806Z,20.04
2023-04-15T07:39:45.886Z,20.11
2023-04-15T07:42:13.823Z,20.17
2023-04-15T07:44:42.150Z,20.22
2023-04-15T07:47:10.918Z,20.28
2023-04-15T07:49:39.089Z,20.31
2023-04-15T07:52:07.371Z,20.34
2023-04-15T07:54:35.616Z,20.37
2023-04-15T07:57:03.720Z,20.40
2023-04-15T07:59:33.652Z,20.42
2023-04-15T08:02:01.887Z,20.44
2023-04-15T08:04:30.536Z,20.45
2023-04-15T08:06:59.284Z,20.46
2023-04-15T08:09:27.458Z,20.47
2023-04-15T08:14:29.635Z,20.50
2023-04-15T08:22:03.998Z,20.54
2023-04-15T08:24:32.063Z,20.55
2023-04-15T08:27:01.671Z,20.55
2023-04-15T08:29:30.873Z,20.57
2023-04-15T08:32:00.828Z,20.57
2023-04-15T08:34:28.968Z,20.58
2023-04-15T08:44:37.136Z,20.66
2023-04-15T08:47:07.867Z,20.67
2023-04-15T08:49:39.386Z,20.69
2023-04-15T08:52:07.682Z,20.70
2023-04-15T08:54:36.751Z,20.72
2023-04-15T08:57:04.851Z,20.75
2023-04-15T09:07:12.238Z,20.93
2023-04-15T09:09:42.221Z,20.96
2023-04-15T09:12:11.814Z,20.98
2023-04-15T09:14:40.821Z,20.99
2023-04-15T09:17:10.626Z,21.01
2023-04-15T09:19:38.902Z,21.04
2023-04-15T09:22:07.053Z,21.07
2023-04-15T09:24:39.416Z,21.11
2023-04-15T09:27:07.711Z,21.15
2023-04-15T09:29:35.783Z,21.20
2023-04-15T09:32:11.523Z,21.24
2023-04-15T09:34:39.534Z,21.29
2023-04-15T09:37:08.164Z,21.32
2023-04-15T09:39:50.187Z,21.35
2023-04-15T09:42:24.564Z,21.39
2023-04-15T09:44:53.245Z,21.44
2023-04-15T09:47:31.711Z,21.47
2023-04-15T09:50:00.526Z,21.49
2023-04-15T09:52:29.012Z,21.52
2023-04-15T09:54:58.727Z,21.55
2023-04-15T09:57:36.704Z,21.58
2023-04-15T10:00:08.340Z,21.62
2023-04-15T10:02:38.541Z,21.67
2023-04-15T10:05:07.380Z,21.71
2023-04-15T10:07:35.446Z,21.73
2023-04-15T10:10:04.642Z,21.75
2023-04-15T10:12:33.741Z,21.76
2023-04-15T10:15:07.352Z,21.79
2023-04-15T10:17:35.744Z,21.82
2023-04-15T10:20:05.368Z,21.87
2023-04-15T10:22:33.459Z,21.91
2023-04-15T10:25:02.440Z,21.96
2023-04-15T10:27:30.873Z,22.00
2023-04-15T10:29:58.947Z,22.04
2023-04-15T10:32:27.408Z,22.09
2023-04-15T10:34:55.604Z,22.12
2023-04-15T10:37:34.014Z,22.16
2023-04-15T10:40:03.213Z,22.18
2023-04-15T10:42:34.785Z,22.22
2023-04-15T10:45:02.728Z,22.25
2023-04-15T10:55:18.167Z,22.39
2023-04-15T10:57:46.228Z,22.42
2023-04-15T11:00:15.974Z,22.45
2023-04-15T11:02:53.624Z,22.47
2023-04-15T11:05:41.573Z,22.50
2023-04-15T11:08:10.472Z,22.52
2023-04-15T11:10:38.582Z,22.55
2023-04-15T11:21:01.852Z,22.65
2023-04-15T11:23:38.427Z,22.66
2023-04-15T11:26:10.016Z,22.69
2023-04-15T11:28:44.946Z,22.71
2023-04-15T11:31:14.628Z,22.73
2023-04-15T11:33:59.783Z,22.73
2023-04-15T11:36:29.427Z,22.72
2023-04-15T11:38:58.311Z,22.72
2023-04-15T11:51:39.249Z,22.74
2023-04-15T11:54:07.420Z,22.75
2023-04-15T12:01:43.189Z,22.76
2023-04-15T12:04:18.035Z,22.75
2023-04-15T12:06:46.621Z,22.74
2023-04-15T12:09:17.571Z,22.73
2023-04-15T12:11:46.132Z,22.74
2023-04-15T12:14:24.635Z,22.74
2023-04-15T12:16:58.349Z,22.74
2023-04-15T12:24:57.274Z,22.77
2023-04-15T12:30:06.062Z,22.77
2023-04-15T12:32:37.356Z,22.77
2023-04-15T12:35:06.272Z,22.76
2023-04-15T12:40:08.801Z,22.76
2023-04-15T12:42:37.041Z,22.76
2023-04-15T12:45:05.662Z,22.75
2023-04-15T12:47:33.714Z,22.76
2023-04-15T12:50:01.774Z,22.75
2023-04-15T12:52:29.793Z,22.74
2023-04-15T12:57:30.789Z,22.76
2023-04-15T12:59:58.870Z,22.77
2023-04-15T13:02:28.869Z,22.77
2023-04-15T13:04:57.070Z,22.76
2023-04-15T13:07:25.230Z,22.76
2023-04-15T13:12:27.311Z,22.75
2023-04-15T13:14:55.454Z,22.74
2023-04-15T13:17:23.566Z,22.74
2023-04-15T13:19:52.248Z,22.73
2023-04-15T13:22:20.613Z,22.72
2023-04-15T13:24:48.605Z,22.71
2023-04-15T13:27:16.759Z,22.71
2023-04-15T13:29:44.837Z,22.70
2023-04-15T13:34:45.951Z,22.69
2023-04-15T13:37:13.972Z,22.69
2023-04-15T13:39:42.044Z,22.69
2023-04-15T13:42:10.103Z,22.69
2023-04-15T13:44:38.769Z,22.68
2023-04-15T13:47:07.074Z,22.68
2023-04-15T13:49:35.149Z,22.68
2023-04-15T13:52:03.219Z,22.67
2023-04-15T13:54:37.754Z,22.67
2023-04-15T13:59:39.612Z,22.66
2023-04-15T14:02:07.905Z,22.66
2023-04-15T14:04:35.994Z,22.66
2023-04-15T14:07:05.267Z,22.65
2023-04-15T14:12:02.638Z,22.64
2023-04-15T14:14:30.614Z,22.63
2023-04-15T14:16:58.915Z,22.63
2023-04-15T14:19:27.160Z,22.62
2023-04-15T14:21:55.334Z,22.61
2023-04-15T14:24:23.205Z,22.60
2023-04-15T14:26:51.373Z,22.60
2023-04-15T14:29:19.345Z,22.59
2023-04-15T14:32:04.303Z,22.58
2023-04-15T14:34:36.987Z,22.56
2023-04-15T14:37:05.363Z,22.56
2023-04-15T14:39:33.442Z,22.55
2023-04-15T14:42:02.023Z,22.54
2023-04-15T14:47:02.776Z,22.52
2023-04-15T14:49:30.843Z,22.51
2023-04-15T14:51:58.818Z,22.50
2023-04-15T14:54:27.110Z,22.49
2023-04-15T14:56:55.161Z,22.49
2023-04-15T14:59:23.543Z,22.48
2023-04-15T15:01:51.776Z,22.47
2023-04-15T15:04:20.179Z,22.46
2023-04-15T15:06:49.227Z,22.46
2023-04-15T15:09:17.482Z,22.45
2023-04-15T15:11:45.488Z,22.45
2023-04-15T15:14:14.851Z,22.44
2023-04-15T15:16:42.928Z,22.42
2023-04-15T15:19:11.204Z,22.42
2023-04-15T15:21:39.464Z,22.41
2023-04-15T15:24:07.348Z,22.40
2023-04-15T15:26:35.409Z,22.39
2023-04-15T15:29:03.922Z,22.37
2023-04-15T15:31:32.190Z,22.36
2023-04-15T15:34:00.435Z,22.34
2023-04-15T15:36:28.713Z,22.32
2023-04-15T15:38:56.608Z,22.31
2023-04-15T15:41:26.014Z,22.29
2023-04-15T15:43:54.365Z,22.28
2023-04-15T15:46:24.473Z,22.27
2023-04-15T15:48:52.676Z,22.28
2023-04-15T15:51:21.153Z,22.28
2023-04-15T15:53:49.339Z,22.23
2023-04-15T15:56:17.291Z,22.24
2023-04-15T15:58:45.380Z,22.27
2023-04-15T16:01:13.612Z,22.28
2023-04-15T16:03:41.961Z,22.28
2023-04-15T16:08:42.886Z,22.26
2023-04-15T16:11:10.940Z,22.25
2023-04-15T16:13:38.913Z,22.25
2023-04-15T16:16:07.560Z,22.25
2023-04-15T16:18:35.773Z,22.24
2023-04-15T16:23:37.273Z,22.24
2023-04-15T16:26:05.418Z,22.23
2023-04-15T16:28:33.421Z,22.23
2023-04-15T16:31:01.558Z,22.22
2023-04-15T16:33:29.541Z,22.20
2023-04-15T16:35:57.511Z,22.11
2023-04-15T16:38:25.570Z,22.19
2023-04-15T16:40:53.956Z,22.18
2023-04-15T16:43:21.927Z,22.17
2023-04-15T16:45:51.584Z,22.16
2023-04-15T16:48:20.125Z,22.15
2023-04-15T16:50:49.099Z,22.14
2023-04-15T16:53:17.100Z,22.12
2023-04-15T16:55:45.159Z,22.11
2023-04-15T16:58:13.091Z,22.10
2023-04-15T17:00:41.085Z,22.09
2023-04-15T17:03:09.373Z,22.07
2023-04-15T17:05:38.377Z,22.05
2023-04-15T17:08:06.521Z,22.04
2023-04-15T17:10:34.595Z,22.02
2023-04-15T17:13:02.668Z,22.00
2023-04-15T17:15:30.848Z,21.98
2023-04-15T17:17:58.977Z,21.97
2023-04-15T17:23:00.456Z,21.92
2023-04-15T17:25:28.554Z,21.90
2023-04-15T17:27:56.789Z,21.87
2023-04-15T17:30:24.808Z,21.86
2023-04-15T17:32:52.904Z,21.84
2023-04-15T17:35:21.357Z,21.83
2023-04-15T17:37:49.228Z,21.82
2023-04-15T17:40:17.345Z,21.80
2023-04-15T17:42:45.469Z,21.77
2023-04-15T17:45:14.251Z,21.76
2023-04-15T17:47:42.265Z,21.74
2023-04-15T17:50:10.528Z,21.72
2023-04-15T17:52:38.371Z,21.71
2023-04-15T17:57:40.964Z,21.67
2023-04-15T18:00:10.360Z,21.66
2023-04-15T18:02:41.365Z,21.64
2023-04-15T18:05:10.564Z,21.64
2023-04-15T18:07:38.887Z,21.63
2023-04-15T18:10:09.012Z,21.62
2023-04-15T18:12:37.046Z,21.61
2023-04-15T18:15:05.963Z,21.60
2023-04-15T18:17:34.045Z,21.59
2023-04-15T18:20:02.624Z,21.58
2023-04-15T18:22:30.892Z,21.57
2023-04-15T18:25:04.818Z,21.55
2023-04-15T18:27:33.605Z,21.53
2023-04-15T18:30:01.658Z,21.52
2023-04-15T18:32:32.922Z,21.51
2023-04-15T18:35:01.311Z,21.50
2023-04-15T18:37:31.933Z,21.49
2023-04-15T18:40:00.206Z,21.48
2023-04-15T18:42:28.394Z,21.48
2023-04-15T18:44:56.369Z,21.47
2023-04-15T18:47:27.106Z,21.46
2023-04-15T18:49:55.582Z,21.45
2023-04-15T18:52:23.533Z,21.44
2023-04-15T18:54:51.629Z,21.43
2023-04-15T18:57:23.340Z,21.41
2023-04-15T18:59:54.716Z,21.39
2023-04-15T19:02:22.968Z,21.38
2023-04-15T19:04:51.252Z,21.37
2023-04-15T19:07:19.229Z,21.36
2023-04-15T19:09:47.407Z,21.35
2023-04-15T19:12:15.476Z,21.35
2023-04-15T19:14:43.553Z,21.34
2023-04-15T19:17:11.832Z,21.32
2023-04-15T19:19:39.795Z,21.31
2023-04-15T19:22:08.787Z,21.29
2023-04-15T19:24:36.839Z,21.29
2023-04-15T19:27:04.947Z,21.28
2023-04-15T19:29:33.402Z,21.26
2023-04-15T19:32:01.374Z,21.25
2023-04-15T19:34:29.246Z,21.24
2023-04-15T19:36:57.429Z,21.23
2023-04-15T19:39:26.111Z,21.22
2023-04-15T19:41:55.471Z,21.21
2023-04-15T19:44:23.902Z,21.20
2023-04-15T19:46:53.399Z,21.19
2023-04-15T19:49:21.576Z,21.19
2023-04-15T19:51:52.298Z,21.18
2023-04-15T19:54:20.224Z,21.18
2023-04-15T19:56:48.360Z,21.17
2023-04-15T19:59:16.421Z,21.16
2023-04-15T20:01:44.576Z,21.15
2023-04-15T20:04:12.829Z,21.13
2023-04-15T20:06:41.044Z,21.13
2023-04-15T20:09:11.166Z,21.11
2023-04-15T20:12:44.937Z,21.10
2023-04-15T20:14:27.898Z,21.09
2023-04-15T20:16:56.269Z,21.08
2023-04-15T20:19:24.252Z,21.08
2023-04-15T20:21:54.059Z,21.07
2023-04-15T20:24:24.314Z,21.06
2023-04-15T20:26:52.349Z,21.05
2023-04-15T20:29:20.632Z,21.04
2023-04-15T20:31:50.370Z,21.04
2023-04-15T20:34:18.503Z,21.03
2023-04-15T20:36:46.582Z,21.03
2023-04-15T20:39:14.657Z,21.02
2023-04-15T20:41:43.018Z,21.01
2023-04-15T20:44:11.082Z,21.00
2023-04-15T20:46:40.617Z,21.00
2023-04-15T20:49:08.679Z,20.99
2023-04-15T20:51:38.212Z,20.98
2023-04-15T20:54:06.564Z,20.97
2023-04-15T20:56:34.558Z,20.96
2023-04-15T20:59:03.202Z,20.95
2023-04-15T21:01:31.604Z,20.94
2023-04-15T21:03:59.698Z,20.92
2023-04-15T21:06:27.823Z,20.91
2023-04-15T21:08:55.928Z,20.90
2023-04-15T21:11:43.051Z,20.88
2023-04-15T21:14:12.542Z,20.87
2023-04-15T21:16:41.268Z,20.87
2023-04-15T21:19:09.812Z,20.86
2023-04-15T21:21:37.882Z,20.85
2023-04-15T21:24:07.855Z,20.86
2023-04-15T21:26:36.401Z,20.84
2023-04-15T21:29:04.884Z,20.83
2023-04-15T21:31:33.392Z,20.82
2023-04-15T21:34:01.723Z,20.81
2023-04-15T21:36:29.618Z,20.81
2023-04-15T21:38:57.860Z,20.79
2023-04-15T21:41:26.354Z,20.78
2023-04-15T21:43:54.410Z,20.77
2023-04-15T21:46:25.539Z,20.76
2023-04-15T21:48:55.062Z,20.76
2023-04-15T21:51:23.136Z,20.75
2023-04-15T21:53:52.770Z,20.73
2023-04-15T21:56:24.400Z,20.72
2023-04-15T21:58:55.496Z,20.71
2023-04-15T22:01:24.179Z,20.70
2023-04-15T22:03:52.767Z,20.69
2023-04-15T22:06:21.190Z,20.68
2023-04-15T22:08:57.133Z,20.66
2023-04-15T22:11:30.572Z,20.64
2023-04-15T22:13:59.065Z,20.63
2023-04-15T22:16:27.598Z,20.61
2023-04-15T22:18:55.837Z,20.60
2023-04-15T22:21:23.979Z,20.59
2023-04-15T22:23:52.140Z,20.58
2023-04-15T22:26:20.526Z,20.56
2023-04-15T22:28:48.480Z,20.55
2023-04-15T22:31:16.688Z,20.54
2023-04-15T22:33:44.560Z,20.52
2023-04-15T22:36:13.719Z,20.50
2023-04-15T22:38:41.794Z,20.49
2023-04-15T22:41:09.873Z,20.47
2023-04-15T22:43:37.936Z,20.46
2023-04-15T22:46:06.014Z,20.39
2023-04-15T22:48:35.112Z,20.44
2023-04-15T22:51:04.908Z,20.43
2023-04-15T22:53:32.885Z,20.42
2023-04-15T22:56:01.191Z,20.42
2023-04-15T22:58:32.212Z,20.41
2023-04-15T23:01:00.164Z,20.40
2023-04-15T23:03:28.380Z,20.38
2023-04-15T23:05:56.685Z,20.37
2023-04-15T23:08:24.725Z,20.36
2023-04-15T23:10:52.674Z,20.35
2023-04-15T23:13:20.839Z,20.35
2023-04-15T23:15:48.862Z,20.34
2023-04-15T23:18:16.844Z,20.33
2023-04-15T23:20:46.281Z,20.32
2023-04-15T23:23:14.663Z,20.31
2023-04-15T23:25:42.518Z,20.30
2023-04-15T23:28:10.606Z,20.28
2023-04-15T23:30:38.601Z,20.28
2023-04-15T23:33:06.652Z,20.26
2023-04-15T23:35:34.702Z,20.25
2023-04-15T23:38:02.775Z,20.24
2023-04-15T23:40:30.857Z,20.22
2023-04-15T23:42:58.817Z,20.21
2023-04-15T23:45:27.004Z,20.21
2023-04-15T23:47:55.069Z,20.20
2023-04-15T23:50:23.039Z,20.18
2023-04-15T23:52:51.117Z,20.17
2023-04-15T23:55:19.283Z,20.16
2023-04-15T23:57:47.380Z,20.15
